createdAt,value
2018-12-05T00:01:29.903Z,5.00
2018-12-05T00:03:57.377Z,4.80
2018-12-05T00:06:24.892Z,4.80
2018-12-05T00:08:52.443Z,4.90
2018-12-05T00:11:20.233Z,4.90
2018-12-05T00:13:47.685Z,4.90
2018-12-05T00:16:15.423Z,4.90
2018-12-05T00:18:42.883Z,4.80
2018-12-05T00:21:10.392Z,4.70
2018-12-05T00:23:37.879Z,4.70
2018-12-05T00:26:05.446Z,4.60
2018-12-05T00:28:33.007Z,4.70
2018-12-05T00:31:00.644Z,4.60
2018-12-05T00:33:28.207Z,4.60
2018-12-05T00:35:55.688Z,4.60
2018-12-05T00:38:23.139Z,4.70
2018-12-05T00:40:50.612Z,4.60
2018-12-05T00:43:18.360Z,4.50
2018-12-05T00:45:45.827Z,4.50
2018-12-05T00:48:13.581Z,4.40
2018-12-05T00:50:41.040Z,4.60
2018-12-05T00:53:08.496Z,4.50
2018-12-05T00:55:36.279Z,4.50
2018-12-05T00:58:04.044Z,4.50
2018-12-05T01:00:31.796Z,4.40
2018-12-05T01:02:59.539Z,4.50
2018-12-05T01:05:27.159Z,4.60
2018-12-05T01:07:54.768Z,4.60
2018-12-05T01:10:22.248Z,4.40
2018-12-05T01:12:49.987Z,4.20
2018-12-05T01:15:17.444Z,4.20
2018-12-05T01:17:45.112Z,4.30
2018-12-05T01:20:12.976Z,4.30
2018-12-05T01:22:40.451Z,4.30
2018-12-05T01:25:07.908Z,4.30
2018-12-05T01:27:35.676Z,4.50
2018-12-05T01:30:03.412Z,4.40
2018-12-05T01:32:31.184Z,4.30
2018-12-05T01:34:58.967Z,4.20
2018-12-05T01:37:26.703Z,4.40
2018-12-05T01:39:54.495Z,4.30
2018-12-05T01:42:21.939Z,4.20
2018-12-05T01:44:52.168Z,4.20
2018-12-05T01:47:19.645Z,4.50
2018-12-05T01:49:47.387Z,4.40
2018-12-05T01:52:14.832Z,4.40
2018-12-05T01:54:42.396Z,4.40
2018-12-05T01:57:10.012Z,4.40
2018-12-05T01:59:37.520Z,4.50
2018-12-05T02:02:05.268Z,4.60
2018-12-05T02:04:32.740Z,4.50
2018-12-05T02:07:00.492Z,4.50
2018-12-05T02:09:27.964Z,4.50
2018-12-05T02:11:55.406Z,4.50
2018-12-05T02:14:23.165Z,4.50
2018-12-05T02:16:50.643Z,4.40
2018-12-05T02:19:18.400Z,4.20
2018-12-05T02:21:46.152Z,4.00
2018-12-05T02:24:13.596Z,3.90
2018-12-05T02:26:41.369Z,4.00
2018-12-05T02:29:09.128Z,4.10
2018-12-05T02:31:36.561Z,4.10
2018-12-05T02:34:04.040Z,4.20
2018-12-05T02:36:31.676Z,4.20
2018-12-05T02:38:59.262Z,4.20
2018-12-05T02:41:26.725Z,3.90
2018-12-05T02:43:54.378Z,3.90
2018-12-05T02:46:21.965Z,4.00
2018-12-05T02:48:49.387Z,4.10
2018-12-05T02:51:16.838Z,4.00
2018-12-05T02:53:44.695Z,4.10
2018-12-05T02:56:12.245Z,4.10
2018-12-05T02:58:40.109Z,4.10
2018-12-05T03:01:07.625Z,4.10
2018-12-05T03:03:35.125Z,4.10
2018-12-05T03:06:02.825Z,4.10
2018-12-05T03:08:30.485Z,4.20
2018-12-05T03:10:58.060Z,4.10
2018-12-05T03:13:25.795Z,4.00
2018-12-05T03:15:53.266Z,4.20
2018-12-05T03:18:21.045Z,4.30
2018-12-05T03:20:48.492Z,4.10
2018-12-05T03:23:16.127Z,4.10
2018-12-05T03:25:43.700Z,4.10
2018-12-05T03:28:11.177Z,4.20
2018-12-05T03:30:38.958Z,4.30
2018-12-05T03:33:06.677Z,4.20
2018-12-05T03:35:38.156Z,4.20
2018-12-05T03:38:06.212Z,4.00
2018-12-05T03:40:33.680Z,3.90
2018-12-05T03:43:01.422Z,4.10
2018-12-05T03:45:31.740Z,4.00
2018-12-05T03:47:59.544Z,4.10
2018-12-05T03:50:27.117Z,4.00
2018-12-05T03:52:54.933Z,4.00
2018-12-05T03:55:22.384Z,4.00
2018-12-05T03:57:49.836Z,3.90
2018-12-05T04:00:17.279Z,4.00
2018-12-05T04:02:44.756Z,4.00
2018-12-05T04:05:12.232Z,4.10
2018-12-05T04:07:39.667Z,3.90
2018-12-05T04:10:07.312Z,3.70
2018-12-05T04:12:40.493Z,3.90
2018-12-05T04:15:05.511Z,3.90
2018-12-05T04:17:33.184Z,4.00
2018-12-05T04:20:00.863Z,4.00
2018-12-05T04:22:28.307Z,3.90
2018-12-05T04:24:55.776Z,4.00
2018-12-05T04:27:25.232Z,3.90
2018-12-05T04:29:53.031Z,3.80
2018-12-05T04:32:20.773Z,3.70
2018-12-05T04:34:48.481Z,3.80
2018-12-05T04:37:15.928Z,3.60
2018-12-05T04:39:43.674Z,3.80
2018-12-05T04:42:11.431Z,3.80
2018-12-05T04:44:38.905Z,3.80
2018-12-05T04:47:06.675Z,3.70
2018-12-05T04:49:34.134Z,3.80
2018-12-05T04:52:01.876Z,3.60
2018-12-05T04:54:29.333Z,3.70
2018-12-05T04:56:57.100Z,3.70
2018-12-05T04:59:24.580Z,3.80
2018-12-05T05:01:52.329Z,3.70
2018-12-05T05:04:20.100Z,3.70
2018-12-05T05:06:47.671Z,3.70
2018-12-05T05:09:15.306Z,3.80
2018-12-05T05:11:42.766Z,3.70
2018-12-05T05:14:10.524Z,3.60
2018-12-05T05:16:38.012Z,3.50
2018-12-05T05:19:05.753Z,3.60
2018-12-05T05:21:33.331Z,3.50
2018-12-05T05:24:00.989Z,3.50
2018-12-05T05:26:28.614Z,3.50
2018-12-05T05:28:56.207Z,3.70
2018-12-05T05:31:23.903Z,3.70
2018-12-05T05:33:51.710Z,3.60
2018-12-05T05:36:19.192Z,3.50
2018-12-05T05:38:46.924Z,3.70
2018-12-05T05:41:14.713Z,3.80
2018-12-05T05:43:42.454Z,3.80
2018-12-05T05:46:09.910Z,3.80
2018-12-05T05:48:37.368Z,3.80
2018-12-05T05:51:04.840Z,3.80
2018-12-05T05:53:32.479Z,3.60
2018-12-05T05:56:00.040Z,3.80
2018-12-05T05:58:27.507Z,3.70
2018-12-05T06:00:55.260Z,3.80
2018-12-05T06:03:22.721Z,3.80
2018-12-05T06:05:50.203Z,3.80
2018-12-05T06:08:17.767Z,3.90
2018-12-05T06:10:46.017Z,3.80
2018-12-05T06:13:13.511Z,3.70
2018-12-05T06:15:40.948Z,3.50
2018-12-05T06:18:08.807Z,3.50
2018-12-05T06:20:36.456Z,3.30
2018-12-05T06:23:03.920Z,3.30
2018-12-05T06:25:31.669Z,3.20
2018-12-05T06:27:59.155Z,3.20
2018-12-05T06:30:26.892Z,3.30
2018-12-05T06:32:54.348Z,3.30
2018-12-05T06:35:21.806Z,3.30
2018-12-05T06:37:49.248Z,3.50
2018-12-05T06:40:17.092Z,3.60
2018-12-05T06:42:45.008Z,3.70
2018-12-05T06:45:12.479Z,3.70
2018-12-05T06:47:39.916Z,3.70
2018-12-05T06:50:07.470Z,3.70
2018-12-05T06:52:34.944Z,3.50
2018-12-05T06:55:02.700Z,3.30
2018-12-05T06:57:30.163Z,3.30
2018-12-05T06:59:58.232Z,3.20
2018-12-05T07:02:25.680Z,3.20
2018-12-05T07:04:53.463Z,3.10
2018-12-05T07:07:21.223Z,3.10
2018-12-05T07:09:49.081Z,3.10
2018-12-05T07:12:17.400Z,3.10
2018-12-05T07:14:45.109Z,3.00
2018-12-05T07:17:12.596Z,3.00
2018-12-05T07:19:40.324Z,3.00
2018-12-05T07:22:07.800Z,3.00
2018-12-05T07:24:35.557Z,3.00
2018-12-05T07:27:03.312Z,3.00
2018-12-05T07:29:30.764Z,3.10
2018-12-05T07:31:58.217Z,3.20
2018-12-05T07:34:25.681Z,3.20
2018-12-05T07:36:53.129Z,3.10
2018-12-05T07:39:20.575Z,3.00
2018-12-05T07:41:48.051Z,3.10
2018-12-05T07:44:15.725Z,3.10
2018-12-05T07:46:43.198Z,3.10
2018-12-05T07:49:10.620Z,3.10
2018-12-05T07:51:38.124Z,3.10
2018-12-05T07:54:05.635Z,3.10
2018-12-05T07:56:33.095Z,3.20
2018-12-05T07:59:00.537Z,3.20
2018-12-05T08:01:28.003Z,3.20
2018-12-05T08:03:55.461Z,3.20
2018-12-05T08:06:23.224Z,3.20
2018-12-05T08:08:50.990Z,3.30
2018-12-05T08:11:18.468Z,3.30
2018-12-05T08:13:45.924Z,3.30
2018-12-05T08:16:13.399Z,3.30
2018-12-05T08:18:41.280Z,3.40
2018-12-05T08:21:08.756Z,3.30
2018-12-05T08:23:36.387Z,3.30
2018-12-05T08:26:03.894Z,3.30
2018-12-05T08:28:31.579Z,3.40
2018-12-05T08:30:59.023Z,3.40
2018-12-05T08:33:26.470Z,3.50
2018-12-05T08:35:54.002Z,3.50
2018-12-05T08:38:21.591Z,3.50
2018-12-05T08:40:49.066Z,3.60
2018-12-05T08:43:16.608Z,3.60
2018-12-05T08:45:44.087Z,3.70
2018-12-05T08:48:11.532Z,3.70
2018-12-05T08:50:39.007Z,4.00
2018-12-05T08:53:06.496Z,4.30
2018-12-05T08:55:33.954Z,4.40
2018-12-05T08:58:01.439Z,4.30
2018-12-05T09:00:28.880Z,4.10
2018-12-05T09:02:56.587Z,3.90
2018-12-05T09:05:24.540Z,3.80
2018-12-05T09:07:52.039Z,3.80
2018-12-05T09:10:19.516Z,3.80
2018-12-05T09:12:47.331Z,3.70
2018-12-05T09:15:14.793Z,3.70
2018-12-05T09:17:42.357Z,3.60
2018-12-05T09:20:09.879Z,3.70
2018-12-05T09:22:41.210Z,4.80
2018-12-05T09:25:06.832Z,3.70
2018-12-05T09:27:34.512Z,3.70
2018-12-05T09:30:02.005Z,3.70
2018-12-05T09:32:29.647Z,3.80
2018-12-05T09:34:57.079Z,3.80
2018-12-05T09:37:24.547Z,3.90
2018-12-05T09:39:51.995Z,3.80
2018-12-05T09:42:19.461Z,3.70
2018-12-05T09:44:46.916Z,3.70
2018-12-05T09:47:16.027Z,3.70
2018-12-05T09:49:44.016Z,3.70
2018-12-05T09:52:11.536Z,3.70
2018-12-05T09:54:39.292Z,3.80
2018-12-05T09:57:06.755Z,3.80
2018-12-05T09:59:34.206Z,3.70
2018-12-05T10:02:01.684Z,3.70
2018-12-05T10:04:29.436Z,3.60
2018-12-05T10:06:56.884Z,3.70
2018-12-05T10:09:24.960Z,3.80
2018-12-05T10:11:52.416Z,3.70
2018-12-05T10:14:20.201Z,3.90
2018-12-05T10:16:47.944Z,3.90
2018-12-05T10:19:15.710Z,3.90
2018-12-05T10:21:43.460Z,4.00
2018-12-05T10:24:10.932Z,3.90
2018-12-05T10:26:38.397Z,4.00
2018-12-05T10:29:06.145Z,4.10
2018-12-05T10:31:33.591Z,4.20
2018-12-05T10:34:01.232Z,4.20
2018-12-05T10:36:28.685Z,4.20
2018-12-05T10:38:56.230Z,4.20
2018-12-05T10:41:23.751Z,4.30
2018-12-05T10:43:51.598Z,4.40
2018-12-05T10:46:19.270Z,4.40
2018-12-05T10:48:46.817Z,4.50
2018-12-05T10:51:14.476Z,4.40
2018-12-05T10:53:41.924Z,4.40
2018-12-05T10:56:09.413Z,4.40
2018-12-05T10:58:37.159Z,4.40
2018-12-05T11:01:10.306Z,4.30
2018-12-05T11:03:37.766Z,4.40
2018-12-05T11:06:10.896Z,4.50
2018-12-05T11:11:51.384Z,4.50
2018-12-05T11:14:24.629Z,4.50
2018-12-05T11:16:54.096Z,4.60
2018-12-05T11:19:27.232Z,4.60
2018-12-05T11:22:00.950Z,4.60
2018-12-05T11:24:32.336Z,4.60
2018-12-05T11:26:59.976Z,4.60
2018-12-05T11:29:27.883Z,4.70
2018-12-05T11:31:55.522Z,4.70
2018-12-05T11:34:23.257Z,4.70
2018-12-05T11:36:50.732Z,4.70
2018-12-05T11:39:18.254Z,4.80
2018-12-05T11:41:46.415Z,4.80
2018-12-05T11:44:14.013Z,4.70
2018-12-05T11:46:41.472Z,4.70
2018-12-05T11:49:08.944Z,4.70
2018-12-05T11:51:36.395Z,4.60
2018-12-05T11:54:04.095Z,4.70
2018-12-05T11:56:31.600Z,4.70
2018-12-05T11:58:59.345Z,4.80
2018-12-05T12:01:26.815Z,4.90
2018-12-05T12:03:54.579Z,4.90
2018-12-05T12:06:22.040Z,5.10
2018-12-05T12:08:49.800Z,5.10
2018-12-05T12:11:17.873Z,5.00
2018-12-05T12:13:45.455Z,5.00
2018-12-05T12:16:13.724Z,5.00
2018-12-05T12:18:41.183Z,4.90
2018-12-05T12:21:08.939Z,4.90
2018-12-05T12:23:36.695Z,4.90
2018-12-05T12:26:04.791Z,5.00
2018-12-05T12:28:32.412Z,5.10
2018-12-05T12:30:59.897Z,5.10
2018-12-05T12:33:27.377Z,5.00
2018-12-05T12:35:54.876Z,4.90
2018-12-05T12:38:22.357Z,4.90
2018-12-05T12:40:50.026Z,4.90
2018-12-05T12:43:17.580Z,4.90
2018-12-05T12:45:45.032Z,4.90
2018-12-05T12:48:12.482Z,5.00
2018-12-05T12:50:40.244Z,5.00
2018-12-05T12:53:07.701Z,5.00
2018-12-05T12:55:35.144Z,5.00
2018-12-05T12:58:02.584Z,5.00
2018-12-05T13:00:30.080Z,5.20
2018-12-05T13:02:57.540Z,5.20
2018-12-05T13:05:25.628Z,5.20
2018-12-05T13:07:53.372Z,5.20
2018-12-05T13:10:20.996Z,5.20
2018-12-05T13:12:50.335Z,5.30
2018-12-05T13:15:17.919Z,5.30
2018-12-05T13:17:45.666Z,5.20
2018-12-05T13:20:13.435Z,5.10
2018-12-05T13:22:41.199Z,5.10
2018-12-05T13:25:08.958Z,5.10
2018-12-05T13:27:36.408Z,5.10
2018-12-05T13:30:04.469Z,5.10
2018-12-05T13:32:31.924Z,5.10
2018-12-05T13:34:59.556Z,5.10
2018-12-05T13:37:27.013Z,5.00
2018-12-05T13:39:54.591Z,5.10
2018-12-05T13:42:22.038Z,5.00
2018-12-05T13:44:49.512Z,5.00
2018-12-05T13:47:17.170Z,5.00
2018-12-05T13:49:44.728Z,5.00
2018-12-05T13:52:12.316Z,4.90
2018-12-05T13:54:39.949Z,4.90
2018-12-05T13:57:07.732Z,4.90
2018-12-05T13:59:35.334Z,4.90
2018-12-05T14:02:02.933Z,4.90
2018-12-05T14:04:30.400Z,4.90
2018-12-05T14:06:57.839Z,4.90
2018-12-05T14:09:26.224Z,4.80
2018-12-05T14:11:53.988Z,4.80
2018-12-05T14:14:21.484Z,4.80
2018-12-05T14:16:49.208Z,4.70
2018-12-05T14:19:16.899Z,4.80
2018-12-05T14:21:45.217Z,4.80
2018-12-05T14:24:12.730Z,4.70
2018-12-05T14:26:40.196Z,4.70
2018-12-05T14:29:07.634Z,4.70
2018-12-05T14:31:35.229Z,4.70
2018-12-05T14:34:02.868Z,4.60
2018-12-05T14:36:30.343Z,4.70
2018-12-05T14:38:57.802Z,4.50
2018-12-05T14:41:25.301Z,4.50
2018-12-05T14:43:52.756Z,4.50
2018-12-05T14:46:20.364Z,4.40
2018-12-05T14:48:48.012Z,4.50
2018-12-05T14:51:15.467Z,4.40
2018-12-05T14:53:42.903Z,4.40
2018-12-05T14:56:10.385Z,4.40
2018-12-05T14:58:39.380Z,4.30
2018-12-05T15:01:07.270Z,4.30
2018-12-05T15:03:34.870Z,4.40
2018-12-05T15:06:02.506Z,4.20
2018-12-05T15:08:30.009Z,4.20
2018-12-05T15:10:57.596Z,4.20
2018-12-05T15:13:25.202Z,4.20
2018-12-05T15:15:52.768Z,4.20
2018-12-05T15:18:20.443Z,4.10
2018-12-05T15:20:48.035Z,4.10
2018-12-05T15:23:15.483Z,4.10
2018-12-05T15:25:43.212Z,4.10
2018-12-05T15:28:10.665Z,4.10
2018-12-05T15:30:38.432Z,4.10
2018-12-05T15:33:05.888Z,4.20
2018-12-05T15:35:33.368Z,4.20
2018-12-05T15:38:00.849Z,4.20
2018-12-05T15:40:28.459Z,4.10
2018-12-05T15:42:55.923Z,4.10
2018-12-05T15:45:23.691Z,4.10
2018-12-05T15:47:51.236Z,4.10
2018-12-05T15:50:18.705Z,4.10
2018-12-05T15:52:46.489Z,4.10
2018-12-05T15:55:13.960Z,4.20
2018-12-05T15:57:41.998Z,4.20
2018-12-05T16:00:10.091Z,4.10
2018-12-05T16:02:37.840Z,4.10
2018-12-05T16:05:06.588Z,4.10
2018-12-05T16:07:34.173Z,4.20
2018-12-05T16:10:01.729Z,4.10
2018-12-05T16:12:29.495Z,4.10
2018-12-05T16:14:56.964Z,4.10
2018-12-05T16:17:25.547Z,4.00
2018-12-05T16:19:53.032Z,4.00
2018-12-05T16:22:20.544Z,3.90
2018-12-05T16:24:48.328Z,3.90
2018-12-05T16:27:15.811Z,4.00
2018-12-05T16:29:43.396Z,3.90
2018-12-05T16:32:11.313Z,3.90
2018-12-05T16:34:38.775Z,3.90
2018-12-05T16:37:06.240Z,3.90
2018-12-05T16:39:33.691Z,4.00
2018-12-05T16:42:01.425Z,4.00
2018-12-05T16:44:28.892Z,4.10
2018-12-05T16:46:56.368Z,4.10
2018-12-05T16:49:24.815Z,4.20
2018-12-05T16:51:52.277Z,4.10
2018-12-05T16:54:20.273Z,4.10
2018-12-05T16:56:48.018Z,4.20
2018-12-05T16:59:15.776Z,4.20
2018-12-05T17:01:43.279Z,4.10
2018-12-05T17:04:11.004Z,4.10
2018-12-05T17:06:38.781Z,4.20
2018-12-05T17:09:07.270Z,4.20
2018-12-05T17:11:34.916Z,4.30
2018-12-05T17:14:02.656Z,4.30
2018-12-05T17:16:30.144Z,4.30
2018-12-05T17:18:57.900Z,4.30
2018-12-05T17:21:25.681Z,4.30
2018-12-05T17:23:53.142Z,4.40
2018-12-05T17:26:20.861Z,4.40
2018-12-05T17:28:48.428Z,4.50
2018-12-05T17:31:15.994Z,4.80
2018-12-05T17:33:43.444Z,4.90
2018-12-05T17:36:10.893Z,5.00
2018-12-05T17:38:38.332Z,5.00
2018-12-05T17:41:05.780Z,4.90
2018-12-05T17:43:33.984Z,4.80
2018-12-05T17:46:01.563Z,4.70
2018-12-05T17:48:29.089Z,4.60
2018-12-05T17:50:56.672Z,4.60
2018-12-05T17:53:24.118Z,4.60
2018-12-05T17:55:51.568Z,4.60
2018-12-05T17:58:19.343Z,4.50
2018-12-05T18:00:47.374Z,4.60
2018-12-05T18:03:14.828Z,4.60
2018-12-05T18:05:42.292Z,4.50
2018-12-05T18:08:10.425Z,4.40
2018-12-05T18:10:39.507Z,4.30
2018-12-05T18:13:07.742Z,4.20
2018-12-05T18:15:35.188Z,4.30
2018-12-05T18:18:03.634Z,4.40
2018-12-05T18:20:31.092Z,4.40
2018-12-05T18:22:58.552Z,4.50
2018-12-05T18:25:26.165Z,4.30
2018-12-05T18:27:53.634Z,4.40
2018-12-05T18:30:21.308Z,4.50
2018-12-05T18:32:48.968Z,4.50
2018-12-05T18:35:16.735Z,3.10
2018-12-05T18:37:45.083Z,4.70
2018-12-05T18:40:13.027Z,4.80
2018-12-05T18:42:40.503Z,4.70
2018-12-05T18:45:08.167Z,4.70
2018-12-05T18:47:36.010Z,4.60
2018-12-05T18:50:05.436Z,4.70
2018-12-05T18:52:32.977Z,4.60
2018-12-05T18:55:00.607Z,4.50
2018-12-05T18:57:28.052Z,4.60
2018-12-05T19:00:01.327Z,4.60
2018-12-05T19:02:25.207Z,4.40
2018-12-05T19:04:52.755Z,4.40
2018-12-05T19:07:20.203Z,4.50
2018-12-05T19:09:47.760Z,4.50
2018-12-05T19:12:15.362Z,4.50
2018-12-05T19:14:45.372Z,4.60
2018-12-05T19:17:13.608Z,4.70
2018-12-05T19:19:41.348Z,4.80
2018-12-05T19:22:08.823Z,4.70
2018-12-05T19:24:36.308Z,4.60
2018-12-05T19:27:03.771Z,4.60
2018-12-05T19:29:31.213Z,4.50
2018-12-05T19:31:58.854Z,4.60
2018-12-05T19:34:26.441Z,4.50
2018-12-05T19:36:53.904Z,4.60
2018-12-05T19:39:21.648Z,4.60
2018-12-05T19:41:49.399Z,4.70
2018-12-05T19:44:16.880Z,4.70
2018-12-05T19:46:44.631Z,4.80
2018-12-05T19:49:12.379Z,4.90
2018-12-05T19:51:40.019Z,4.80
2018-12-05T19:54:07.612Z,4.60
2018-12-05T19:56:35.057Z,4.50
2018-12-05T19:59:02.540Z,4.40
2018-12-05T20:01:30.204Z,4.60
2018-12-05T20:03:57.683Z,4.90
2018-12-05T20:06:25.205Z,5.30
2018-12-05T20:08:52.698Z,5.40
2018-12-05T20:11:20.607Z,5.10
2018-12-05T20:13:49.134Z,5.10
2018-12-05T20:16:16.909Z,4.90
2018-12-05T20:18:45.344Z,4.90
2018-12-05T20:21:12.784Z,4.90
2018-12-05T20:23:40.238Z,4.90
2018-12-05T20:26:08.311Z,4.90
2018-12-05T20:28:35.879Z,4.80
2018-12-05T20:31:03.479Z,4.70
2018-12-05T20:33:31.104Z,4.70
2018-12-05T20:35:58.658Z,4.70
2018-12-05T20:38:26.433Z,4.60
2018-12-05T20:40:53.991Z,4.60
2018-12-05T20:43:21.441Z,4.60
2018-12-05T20:45:49.010Z,4.70
2018-12-05T20:48:16.508Z,4.60
2018-12-05T20:50:44.719Z,4.60
2018-12-05T20:53:12.385Z,4.60
2018-12-05T20:55:40.034Z,4.70
2018-12-05T20:58:07.507Z,4.60
2018-12-05T21:00:35.992Z,4.70
2018-12-05T21:03:04.388Z,4.70
2018-12-05T21:05:31.861Z,4.80
2018-12-05T21:07:59.493Z,4.80
2018-12-05T21:10:26.956Z,4.80
2018-12-05T21:12:54.427Z,4.70
2018-12-05T21:15:22.805Z,4.70
2018-12-05T21:17:50.276Z,4.70
2018-12-05T21:20:17.813Z,4.70
2018-12-05T21:22:47.263Z,4.70
2018-12-05T21:25:15.496Z,4.80
2018-12-05T21:27:43.232Z,5.10
2018-12-05T21:30:10.691Z,5.10
2018-12-05T21:32:38.451Z,5.00
2018-12-05T21:35:05.952Z,5.30
2018-12-05T21:37:33.491Z,5.40
2018-12-05T21:40:01.159Z,5.70
2018-12-05T21:42:29.630Z,5.40
2018-12-05T21:44:57.075Z,5.20
2018-12-05T21:47:24.654Z,5.20
2018-12-05T21:49:52.392Z,5.10
2018-12-05T21:52:19.876Z,4.90
2018-12-05T21:54:47.365Z,4.90
2018-12-05T21:57:14.864Z,4.90
2018-12-05T21:59:42.380Z,4.90
2018-12-05T22:02:09.879Z,4.90
2018-12-05T22:04:37.432Z,4.80
2018-12-05T22:07:04.999Z,4.80
2018-12-05T22:09:32.476Z,4.80
2018-12-05T22:12:00.060Z,4.80
2018-12-05T22:14:28.418Z,4.80
2018-12-05T22:16:55.886Z,4.80
2018-12-05T22:19:23.506Z,4.90
2018-12-05T22:21:51.268Z,4.90
2018-12-05T22:24:18.723Z,5.00
2018-12-05T22:26:46.199Z,5.00
2018-12-05T22:29:13.667Z,4.90
2018-12-05T22:31:41.845Z,4.90
2018-12-05T22:34:09.351Z,5.00
2018-12-05T22:36:36.890Z,4.90
2018-12-05T22:39:06.571Z,4.90
2018-12-05T22:41:34.497Z,4.90
2018-12-05T22:44:02.064Z,4.90
2018-12-05T22:46:29.544Z,4.90
2018-12-05T22:48:57.188Z,4.90
2018-12-05T22:51:24.752Z,4.90
2018-12-05T22:53:52.503Z,4.90
2018-12-05T22:56:19.972Z,5.00
2018-12-05T22:58:47.425Z,5.00
2018-12-05T23:01:14.899Z,5.00
2018-12-05T23:03:42.444Z,5.00
2018-12-05T23:06:10.117Z,5.00
2018-12-05T23:08:37.874Z,4.90
2018-12-05T23:11:05.314Z,4.90
2018-12-05T23:13:33.081Z,4.90
2018-12-05T23:16:00.508Z,4.90
2018-12-05T23:18:27.999Z,4.90
2018-12-05T23:20:55.437Z,4.90
2018-12-05T23:23:22.906Z,4.80
2018-12-05T23:25:50.360Z,4.70
2018-12-05T23:28:17.919Z,4.70
2018-12-05T23:30:45.568Z,4.80
2018-12-05T23:33:13.035Z,4.80
2018-12-05T23:35:40.501Z,4.80
2018-12-05T23:38:08.256Z,4.70
2018-12-05T23:40:36.053Z,4.70
2018-12-05T23:43:03.589Z,4.80
2018-12-05T23:45:31.060Z,4.90
2018-12-05T23:47:58.704Z,4.90
2018-12-05T23:50:26.151Z,4.90
2018-12-05T23:52:53.736Z,4.80
2018-12-05T23:55:21.391Z,4.80
2018-12-05T23:57:49.003Z,4.90
